Time;durP1;ratioP1;P1;durP2;ratioP2;P2;SDS_P1;SDS_P2;PMS_P1;PMS_P2;Temp;Humidity;BMP_temperature;BMP_pressure;BME280_temperature;BME280_humidity;BME280_pressure;Samples;Min_cycle;Max_cycle;Signal;HPM_P1;HPM_P2
2023/04/04 00:00:33;;;;;;;9.50;2.33;;;;;;;;;;5088179;28;20044;-76
2023/04/04 00:03:03;;;;;;;12.48;3.05;;;;;;;;;;5093210;28;20063;-77
2023/04/04 00:05:34;;;;;;;7.95;2.50;;;;;;;;;;5091401;28;20052;-75
2023/04/04 00:08:05;;;;;;;8.75;2.92;;;;;;;;;;5088370;28;20095;-77
2023/04/04 00:10:37;;;;;;;10.02;3.33;;;;;;;;;;5099016;28;20407;-79
2023/04/04 00:13:09;;;;;;;10.48;2.50;;;;;;;;;;5082608;28;20064;-76
2023/04/04 00:15:40;;;;;;;11.20;2.47;;;;;;;;;;5085512;28;20051;-77
2023/04/04 00:18:10;;;;;;;16.33;3.08;;;;;;;;;;5105345;28;20043;-75
2023/04/04 00:20:40;;;;;;;20.65;3.58;;;;;;;;;;5108713;28;20051;-77
2023/04/04 00:23:11;;;;;;;10.85;2.95;;;;;;;;;;5104685;28;20051;-76
2023/04/04 00:25:48;;;;;;;14.73;3.22;;;;;;;;;;5089580;28;20040;-78
2023/04/04 00:28:21;;;;;;;;;;;;;;;;;;5090375;28;20051;-76
2023/04/04 00:30:52;;;;;;;13.02;2.95;;;;;;;;;;5107523;28;19930;-76
2023/04/04 00:33:22;;;;;;;12.93;3.35;;;;;;;;;;5107903;28;20043;-78
2023/04/04 00:35:53;;;;;;;11.60;2.67;;;;;;;;;;5108366;28;20051;-76
2023/04/04 00:38:23;;;;;;;12.00;2.92;;;;;;;;;;5089422;28;20429;-76
2023/04/04 00:40:53;;;;;;;9.88;3.05;;;;;;;;;;5108384;28;20056;-76
2023/04/04 00:43:26;;;;;;;13.88;2.60;;;;;;;;;;5107538;28;20058;-77
2023/04/04 00:45:56;;;;;;;15.55;3.65;;;;;;;;;;5108732;28;20032;-79
2023/04/04 00:48:26;;;;;;;13.35;3.53;;;;;;;;;;5089322;28;20051;-78
2023/04/04 00:50:56;;;;;;;10.95;2.33;;;;;;;;;;5108505;28;20047;-75
2023/04/04 00:53:27;;;;;;;16.15;3.03;;;;;;;;;;5108709;28;20058;-76
2023/04/04 00:55:57;;;;;;;14.68;2.42;;;;;;;;;;5089062;28;20066;-79
2023/04/04 00:58:30;;;;;;;14.65;3.30;;;;;;;;;;5089928;28;20052;-76
2023/04/04 01:01:01;;;;;;;14.85;2.92;;;;;;;;;;5108219;28;20048;-79
2023/04/04 01:03:34;;;;;;;10.98;3.30;;;;;;;;;;5107622;28;20052;-76
2023/04/04 01:06:06;;;;;;;8.40;2.83;;;;;;;;;;5108210;28;20059;-79
2023/04/04 01:08:37;;;;;;;7.53;2.67;;;;;;;;;;5073782;28;20048;-79
2023/04/04 01:11:09;;;;;;;14.02;3.20;;;;;;;;;;5088992;28;20059;-76
2023/04/04 01:13:42;;;;;;;10.63;2.80;;;;;;;;;;5088478;28;20051;-76
2023/04/04 01:54:36;;;;;;;11.73;2.63;;;;;;;;;;5072107;28;19921;-76
2023/04/04 01:57:08;;;;;;;15.32;2.45;;;;;;;;;;5065675;28;20052;-76
2023/04/04 01:59:38;;;;;;;12.05;3.00;;;;;;;;;;5066109;28;20048;-76
2023/04/04 02:02:10;;;;;;;12.18;2.53;;;;;;;;;;5065488;28;20415;-77
2023/04/04 02:04:42;;;;;;;8.50;2.38;;;;;;;;;;5066091;28;20045;-78
2023/04/04 02:07:13;;;;;;;16.02;3.10;;;;;;;;;;5081680;28;20048;-76
2023/04/04 02:09:45;;;;;;;11.43;2.67;;;;;;;;;;5065771;28;20056;-76
2023/04/04 02:12:16;;;;;;;9.25;2.67;;;;;;;;;;5065586;28;20059;-78
2023/04/04 02:14:46;;;;;;;16.20;3.17;;;;;;;;;;5067010;28;20425;-77
2023/04/04 02:17:17;;;;;;;10.57;2.45;;;;;;;;;;5066456;28;20036;-77
2023/04/04 02:19:48;;;;;;;13.40;3.85;;;;;;;;;;5065423;28;20058;-78
2023/04/04 02:22:18;;;;;;;16.77;3.20;;;;;;;;;;5081854;28;20431;-77
2023/04/04 02:24:50;;;;;;;14.23;2.58;;;;;;;;;;5066107;28;20056;-76
2023/04/04 02:27:22;;;;;;;11.43;3.05;;;;;;;;;;5069252;28;20045;-79
2023/04/04 02:29:52;;;;;;;10.45;2.45;;;;;;;;;;5070763;28;20456;-75
2023/04/04 02:32:23;;;;;;;12.73;3.03;;;;;;;;;;5070637;28;20407;-78
2023/04/04 02:34:54;;;;;;;14.15;2.83;;;;;;;;;;5086220;28;20060;-77
2023/04/04 02:37:25;;;;;;;8.70;2.72;;;;;;;;;;5069643;28;20452;-78
2023/04/04 02:39:56;;;;;;;10.73;3.17;;;;;;;;;;5069212;28;20055;-76
2023/04/04 02:42:26;;;;;;;15.30;2.92;;;;;;;;;;5070424;28;20045;-77
2023/04/04 02:44:59;;;;;;;11.70;2.92;;;;;;;;;;5069225;28;20067;-77
2023/04/04 02:47:30;;;;;;;10.02;2.67;;;;;;;;;;5069186;28;20052;-76
2023/04/04 02:50:00;;;;;;;13.80;2.63;;;;;;;;;;5068895;28;20054;-76
2023/04/04 02:52:31;;;;;;;6.78;2.63;;;;;;;;;;5072834;28;20063;-78
2023/04/04 02:55:09;;;;;;;11.40;2.45;;;;;;;;;;5088041;28;20829;-77
2023/04/04 02:57:51;;;;;;;13.02;2.90;;;;;;;;;;5089216;28;20056;-76
2023/04/04 03:00:21;;;;;;;16.50;2.92;;;;;;;;;;5088204;28;20051;-76
2023/04/04 03:02:55;;;;;;;17.05;3.67;;;;;;;;;;5088682;28;20056;-77
2023/04/04 03:05:32;;;;;;;13.30;2.95;;;;;;;;;;5088357;28;20052;-76
2023/04/04 03:08:03;;;;;;;15.60;3.22;;;;;;;;;;5088376;28;20071;-76
2023/04/04 03:10:34;;;;;;;16.58;3.17;;;;;;;;;;5088218;28;20415;-78
2023/04/04 03:13:07;;;;;;;13.65;3.85;;;;;;;;;;5087688;28;20066;-76
2023/04/04 03:15:39;;;;;;;10.18;3.00;;;;;;;;;;5089358;28;20055;-76
2023/04/04 03:18:10;;;;;;;12.25;3.28;;;;;;;;;;5088797;28;20404;-76
2023/04/04 03:20:40;;;;;;;11.32;3.00;;;;;;;;;;5089925;28;20059;-79
2023/04/04 03:23:10;;;;;;;9.52;3.00;;;;;;;;;;5090132;28;20051;-78
2023/04/04 03:25:41;;;;;;;11.98;3.70;;;;;;;;;;5086964;28;20056;-78
2023/04/04 03:28:12;;;;;;;9.07;2.92;;;;;;;;;;5090109;28;20070;-77
2023/04/04 03:30:45;;;;;;;15.27;2.90;;;;;;;;;;5089979;28;20051;-76
2023/04/04 03:33:18;;;;;;;9.70;2.63;;;;;;;;;;5090135;28;20503;-76
2023/04/04 03:35:50;;;;;;;11.00;3.25;;;;;;;;;;5087246;28;20059;-76
2023/04/04 03:38:22;;;;;;;19.75;3.60;;;;;;;;;;5087357;28;20819;-77
2023/04/04 03:41:06;;;;;;;12.05;3.55;;;;;;;;;;5087882;28;20537;-78
2023/04/04 03:43:41;;;;;;;11.25;3.17;;;;;;;;;;5087185;28;20056;-78
2023/04/04 03:46:15;;;;;;;8.18;2.63;;;;;;;;;;5089490;28;20075;-77
2023/04/04 03:48:48;;;;;;;13.82;4.13;;;;;;;;;;5089234;28;20495;-77
2023/04/04 03:51:27;;;;;;;13.43;3.47;;;;;;;;;;5089155;28;20498;-78
2023/04/04 03:53:58;;;;;;;8.70;2.97;;;;;;;;;;5087422;28;20060;-78
2023/04/04 03:56:31;;;;;;;11.63;3.15;;;;;;;;;;5089078;28;20044;-77
2023/04/04 03:59:07;;;;;;;11.07;2.70;;;;;;;;;;5088097;28;20059;-77
2023/04/04 04:01:39;;;;;;;12.40;2.80;;;;;;;;;;5086728;28;20059;-77
2023/04/04 04:04:10;;;;;;;7.68;2.60;;;;;;;;;;5087266;28;20062;-75
2023/04/04 04:06:47;;;;;;;11.77;3.50;;;;;;;;;;5089080;28;20044;-79
2023/04/04 04:09:20;;;;;;;13.40;3.33;;;;;;;;;;5089044;28;20051;-76
2023/04/04 04:11:54;;;;;;;9.65;3.42;;;;;;;;;;5088321;28;20044;-79
2023/04/04 04:14:26;;;;;;;8.15;3.22;;;;;;;;;;5086203;28;20062;-77
2023/04/04 04:17:01;;;;;;;9.18;3.40;;;;;;;;;;5086228;28;20052;-77
2023/04/04 04:19:32;;;;;;;10.68;3.22;;;;;;;;;;5089045;28;20840;-77
2023/04/04 04:22:05;;;;;;;12.82;3.45;;;;;;;;;;5088397;28;20399;-76
2023/04/04 04:24:37;;;;;;;11.43;3.53;;;;;;;;;;5087164;28;20422;-76
2023/04/04 04:27:08;;;;;;;10.50;3.35;;;;;;;;;;5089072;28;20054;-76
2023/04/04 04:29:40;;;;;;;8.73;3.78;;;;;;;;;;5088397;28;20047;-77
2023/04/04 04:32:19;;;;;;;11.77;3.92;;;;;;;;;;5086827;28;20056;-77
2023/04/04 04:34:53;;;;;;;14.20;3.90;;;;;;;;;;5086468;28;20044;-77
2023/04/04 04:37:29;;;;;;;;;;;;;;;;;;5086241;28;20058;-79
2023/04/04 04:40:01;;;;;;;8.48;3.70;;;;;;;;;;5085806;28;19928;-77
2023/04/04 04:42:44;;;;;;;6.40;3.20;;;;;;;;;;5085835;28;20048;-76
2023/04/04 04:45:19;;;;;;;16.10;3.60;;;;;;;;;;5086505;28;20051;-77
2023/04/04 04:48:03;;;;;;;8.75;3.42;;;;;;;;;;5085792;28;20594;-76
2023/04/04 04:50:46;;;;;;;8.85;3.60;;;;;;;;;;5085287;28;20529;-77
2023/04/04 04:53:27;;;;;;;14.52;3.50;;;;;;;;;;5085786;28;20051;-77
2023/04/04 04:55:58;;;;;;;14.02;3.60;;;;;;;;;;5085764;28;20534;-76
2023/04/04 04:58:30;;;;;;;9.15;2.88;;;;;;;;;;5086256;28;20052;-76
2023/04/04 05:01:02;;;;;;;16.27;4.03;;;;;;;;;;5086295;28;20055;-78
2023/04/04 05:03:40;;;;;;;13.05;3.13;;;;;;;;;;5086016;28;20059;-78
2023/04/04 05:06:15;;;;;;;10.75;3.47;;;;;;;;;;5069741;28;20052;-77
2023/04/04 05:08:46;;;;;;;13.52;3.80;;;;;;;;;;5085740;28;20411;-78
2023/04/04 05:11:30;;;;;;;14.77;3.58;;;;;;;;;;5085962;28;20063;-78
2023/04/04 05:14:04;;;;;;;17.15;4.15;;;;;;;;;;5085159;28;20067;-76
2023/04/04 05:16:41;;;;;;;9.93;3.03;;;;;;;;;;5085781;28;20134;-78
2023/04/04 05:19:12;;;;;;;13.68;3.78;;;;;;;;;;5085609;28;20056;-77
2023/04/04 05:21:48;;;;;;;11.45;3.85;;;;;;;;;;5071118;28;20067;-77
2023/04/04 05:24:29;;;;;;;17.20;3.60;;;;;;;;;;5085299;28;20058;-78
2023/04/04 05:27:00;;;;;;;14.35;3.80;;;;;;;;;;5085578;28;20834;-77
2023/04/04 05:29:37;;;;;;;13.70;3.50;;;;;;;;;;5085300;28;20059;-78
2023/04/04 05:32:08;;;;;;;10.75;3.55;;;;;;;;;;5085338;28;20061;-77
2023/04/04 05:34:42;;;;;;;14.30;2.80;;;;;;;;;;5070321;28;20052;-76
2023/04/04 05:37:17;;;;;;;12.75;3.85;;;;;;;;;;5085762;28;20079;-77
2023/04/04 05:39:50;;;;;;;10.90;4.03;;;;;;;;;;5084964;28;20423;-76
2023/04/04 05:42:20;;;;;;;15.93;3.67;;;;;;;;;;5085401;28;20048;-79
2023/04/04 05:44:55;;;;;;;14.25;3.95;;;;;;;;;;5085192;28;20059;-76
2023/04/04 05:47:28;;;;;;;13.05;4.32;;;;;;;;;;5085538;28;20511;-77
2023/04/04 05:50:02;;;;;;;12.70;4.18;;;;;;;;;;5084640;28;20052;-78
2023/04/04 05:52:36;;;;;;;10.82;3.70;;;;;;;;;;5085370;28;20056;-77
2023/04/04 05:55:11;;;;;;;11.20;4.05;;;;;;;;;;5084719;28;20430;-78
2023/04/04 05:57:51;;;;;;;11.30;3.95;;;;;;;;;;5085416;28;20114;-76
2023/04/04 06:00:31;;;;;;;17.05;4.13;;;;;;;;;;5084297;28;20849;-76
2023/04/04 06:03:06;;;;;;;;;;;;;;;;;;5069287;28;20404;-77
2023/04/04 06:05:38;;;;;;;10.45;2.92;;;;;;;;;;5084911;28;19927;-77
2023/04/04 06:08:09;;;;;;;12.35;3.72;;;;;;;;;;5087248;28;20044;-76
2023/04/04 06:10:40;;;;;;;10.45;3.20;;;;;;;;;;5087511;28;20054;-77
2023/04/04 06:13:11;;;;;;;9.60;3.50;;;;;;;;;;5086698;28;20047;-76
2023/04/04 06:15:44;;;;;;;13.90;3.90;;;;;;;;;;5084778;28;20048;-76
2023/04/04 06:18:16;;;;;;;11.70;3.85;;;;;;;;;;5086654;28;20055;-77
2023/04/04 06:20:47;;;;;;;13.70;3.83;;;;;;;;;;5086637;28;20040;-76
2023/04/04 06:23:17;;;;;;;16.05;4.07;;;;;;;;;;5084722;28;20056;-77
2023/04/04 06:25:50;;;;;;;10.15;4.63;;;;;;;;;;5084410;28;20056;-76
2023/04/04 06:28:21;;;;;;;8.30;3.47;;;;;;;;;;5085466;28;20060;-77
2023/04/04 06:30:52;;;;;;;8.63;3.80;;;;;;;;;;5084466;28;20048;-77
2023/04/04 06:33:32;;;;;;;10.25;3.40;;;;;;;;;;5085001;28;20052;-77
2023/04/04 06:36:05;;;;;;;10.40;4.03;;;;;;;;;;5084462;28;20075;-77
2023/04/04 06:38:36;;;;;;;12.85;3.65;;;;;;;;;;5084702;28;20798;-78
2023/04/04 06:41:14;;;;;;;13.48;3.75;;;;;;;;;;5084659;28;20058;-78
2023/04/04 06:43:47;;;;;;;14.43;4.05;;;;;;;;;;5084151;28;20052;-76
2023/04/04 06:46:18;;;;;;;14.25;4.00;;;;;;;;;;5084406;28;20052;-77
2023/04/04 06:48:49;;;;;;;13.65;3.90;;;;;;;;;;5086592;28;20376;-76
2023/04/04 06:51:22;;;;;;;13.27;4.63;;;;;;;;;;5086880;28;20387;-77
2023/04/04 06:53:52;;;;;;;11.00;3.50;;;;;;;;;;5102439;28;20471;-78
2023/04/04 06:56:23;;;;;;;11.77;3.28;;;;;;;;;;5071706;28;20043;-78
2023/04/04 06:58:55;;;;;;;9.63;4.05;;;;;;;;;;5087481;28;20059;-77
2023/04/04 07:01:27;;;;;;;9.45;3.22;;;;;;;;;;5088258;28;20052;-78
2023/04/04 07:03:58;;;;;;;9.13;3.60;;;;;;;;;;5089230;28;20047;-75
2023/04/04 07:06:30;;;;;;;11.00;4.15;;;;;;;;;;5106863;28;20498;-76
2023/04/04 07:09:02;;;;;;;15.15;4.45;;;;;;;;;;5106922;28;20061;-77
2023/04/04 07:11:35;;;;;;;6.40;3.75;;;;;;;;;;5106985;28;20410;-77
2023/04/04 07:14:06;;;;;;;11.30;3.28;;;;;;;;;;5110786;28;20779;-77
2023/04/04 07:16:37;;;;;;;12.55;4.20;;;;;;;;;;5110047;28;20047;-76
2023/04/04 07:19:08;;;;;;;10.05;3.65;;;;;;;;;;5109772;28;20047;-77
2023/04/04 07:21:41;;;;;;;9.65;3.58;;;;;;;;;;5109205;28;20047;-77
2023/04/04 07:24:11;;;;;;;12.50;3.85;;;;;;;;;;5110399;28;20508;-78
2023/04/04 07:26:42;;;;;;;8.70;3.17;;;;;;;;;;5109808;28;20052;-76
2023/04/04 07:29:12;;;;;;;13.18;3.92;;;;;;;;;;5109748;28;20063;-77
2023/04/04 07:31:43;;;;;;;8.45;3.90;;;;;;;;;;5092402;28;20426;-76
2023/04/04 07:34:14;;;;;;;9.10;3.55;;;;;;;;;;5110521;28;20054;-79
2023/04/04 07:36:45;;;;;;;9.82;3.55;;;;;;;;;;5110117;28;20043;-76
2023/04/04 07:39:16;;;;;;;11.23;4.20;;;;;;;;;;5092493;28;20047;-76
2023/04/04 07:41:46;;;;;;;13.00;3.78;;;;;;;;;;5110173;28;20044;-77
2023/04/04 07:44:17;;;;;;;11.30;3.40;;;;;;;;;;5110551;28;20506;-79
2023/04/04 07:46:47;;;;;;;14.48;3.75;;;;;;;;;;5109899;28;20051;-77
2023/04/04 07:49:34;;;;;;;7.75;3.78;;;;;;;;;;5094541;28;20051;-76
2023/04/04 07:52:06;;;;;;;13.70;3.47;;;;;;;;;;5109593;28;20051;-77
2023/04/04 07:54:39;;;;;;;11.95;3.70;;;;;;;;;;5109415;28;20048;-76
2023/04/04 07:57:09;;;;;;;11.38;3.72;;;;;;;;;;5109376;28;20040;-76
2023/04/04 07:59:39;;;;;;;10.05;3.55;;;;;;;;;;5109799;28;20505;-78
2023/04/04 08:02:09;;;;;;;8.68;4.03;;;;;;;;;;5090643;28;20044;-78
2023/04/04 08:04:40;;;;;;;8.73;4.40;;;;;;;;;;5109280;28;20046;-77
2023/04/04 08:07:10;;;;;;;9.68;3.72;;;;;;;;;;5108925;28;20402;-77
2023/04/04 08:09:41;;;;;;;8.57;3.72;;;;;;;;;;5109581;28;20047;-76
2023/04/04 08:12:12;;;;;;;13.75;4.35;;;;;;;;;;5108980;28;20414;-78
2023/04/04 08:14:44;;;;;;;9.93;3.75;;;;;;;;;;5109404;28;20051;-77
2023/04/04 08:17:17;;;;;;;10.30;3.92;;;;;;;;;;5109095;28;20076;-76
2023/04/04 08:19:48;;;;;;;11.20;3.47;;;;;;;;;;5108516;28;20521;-77
2023/04/04 08:22:18;;;;;;;7.13;3.25;;;;;;;;;;5108949;28;20055;-76
2023/04/04 08:24:49;;;;;;;19.60;4.35;;;;;;;;;;5108938;28;20047;-76
2023/04/04 08:27:20;;;;;;;14.48;4.00;;;;;;;;;;5109283;28;20047;-76
2023/04/04 08:29:51;;;;;;;9.55;3.67;;;;;;;;;;5109483;28;20421;-77
2023/04/04 08:32:21;;;;;;;12.02;3.28;;;;;;;;;;5109588;28;20035;-76
2023/04/04 08:34:51;;;;;;;10.68;3.92;;;;;;;;;;5108477;28;20055;-76
2023/04/04 08:37:21;;;;;;;14.63;4.63;;;;;;;;;;5108788;28;20054;-77
2023/04/04 08:39:52;;;;;;;9.15;3.20;;;;;;;;;;5107976;28;20047;-76
2023/04/04 08:42:27;;;;;;;10.35;3.63;;;;;;;;;;5108225;28;20043;-76
2023/04/04 08:45:03;;;;;;;14.90;4.28;;;;;;;;;;5108594;28;20410;-78
2023/04/04 08:47:37;;;;;;;14.45;4.40;;;;;;;;;;5089879;28;20088;-76
2023/04/04 08:50:08;;;;;;;14.10;4.35;;;;;;;;;;5108158;28;20114;-76
2023/04/04 08:52:40;;;;;;;13.75;3.70;;;;;;;;;;5108244;28;20438;-76
2023/04/04 08:55:11;;;;;;;10.48;3.92;;;;;;;;;;5107844;28;20051;-76
2023/04/04 08:57:43;;;;;;;7.15;4.13;;;;;;;;;;5109011;28;20039;-77
2023/04/04 09:00:16;;;;;;;13.65;4.07;;;;;;;;;;5108780;28;20039;-76
2023/04/04 09:03:01;;;;;;;16.27;4.35;;;;;;;;;;5107877;28;20058;-77
2023/04/04 09:05:33;;;;;;;11.88;3.40;;;;;;;;;;5108071;28;20043;-75
2023/04/04 09:08:07;;;;;;;16.63;4.53;;;;;;;;;;5107935;28;20046;-77
2023/04/04 09:10:42;;;;;;;10.70;3.00;;;;;;;;;;5107906;28;20058;-77
2023/04/04 09:13:13;;;;;;;;;;;;;;;;;;5108404;28;20724;-79
2023/04/04 09:15:53;;;;;;;11.55;3.50;;;;;;;;;;5107450;28;19924;-79
2023/04/04 09:18:24;;;;;;;11.38;3.75;;;;;;;;;;5107550;28;20050;-77
2023/04/04 09:20:55;;;;;;;13.10;4.15;;;;;;;;;;5107873;28;20055;-78
2023/04/04 09:23:25;;;;;;;8.48;3.97;;;;;;;;;;5107824;28;20044;-77
2023/04/04 09:25:55;;;;;;;10.85;3.28;;;;;;;;;;5107779;28;20039;-78
2023/04/04 09:28:33;;;;;;;12.13;4.03;;;;;;;;;;5108670;28;20048;-79
2023/04/04 09:31:08;;;;;;;17.92;4.88;;;;;;;;;;5107811;28;20048;-78
2023/04/04 09:33:39;;;;;;;;;;;;;;;;;;5108473;28;20048;-78
2023/04/04 09:36:11;;;;;;;11.95;3.55;;;;;;;;;;5106758;28;20381;-77
2023/04/04 09:38:47;;;;;;;9.82;3.78;;;;;;;;;;5107243;28;20047;-79
2023/04/04 09:41:18;;;;;;;;;;;;;;;;;;5108154;28;20050;-77
2023/04/04 09:43:48;;;;;;;11.45;4.07;;;;;;;;;;5107199;28;20389;-78
2023/04/04 09:46:20;;;;;;;9.15;4.40;;;;;;;;;;5106912;28;20043;-77
2023/04/04 09:48:50;;;;;;;10.32;4.03;;;;;;;;;;5107266;28;20062;-81
2023/04/04 09:51:21;;;;;;;14.23;3.92;;;;;;;;;;5089419;28;20043;-78
2023/04/04 09:53:52;;;;;;;9.27;3.72;;;;;;;;;;5085628;28;20051;-79
2023/04/04 09:56:22;;;;;;;17.38;5.20;;;;;;;;;;5087441;28;20051;-79
2023/04/04 09:58:54;;;;;;;15.35;5.18;;;;;;;;;;5086931;28;20040;-81
2023/04/04 10:01:34;;;;;;;15.07;5.07;;;;;;;;;;5086576;28;20490;-77
2023/04/04 10:04:05;;;;;;;26.48;7.50;;;;;;;;;;5086717;28;20074;-78
2023/04/04 10:06:38;;;;;;;16.38;8.15;;;;;;;;;;5086783;28;20056;-77
2023/04/04 10:09:08;;;;;;;11.07;5.50;;;;;;;;;;5086586;28;20056;-78
2023/04/04 10:11:40;;;;;;;20.73;6.22;;;;;;;;;;5086406;28;20067;-79
2023/04/04 10:14:11;;;;;;;14.65;5.05;;;;;;;;;;5079203;28;20419;-78
2023/04/04 10:16:45;;;;;;;10.70;4.43;;;;;;;;;;5066445;28;20048;-78
2023/04/04 10:19:17;;;;;;;10.93;4.13;;;;;;;;;;5066371;28;20499;-77
2023/04/04 10:21:49;;;;;;;12.00;4.97;;;;;;;;;;5064343;28;20055;-78
2023/04/04 10:24:20;;;;;;;15.07;5.30;;;;;;;;;;5067008;28;20044;-77
2023/04/04 10:26:53;;;;;;;13.77;4.32;;;;;;;;;;5066000;28;20052;-77
2023/04/04 10:29:24;;;;;;;14.13;5.15;;;;;;;;;;5066570;28;20048;-78
2023/04/04 10:32:08;;;;;;;15.50;4.93;;;;;;;;;;5066142;28;20063;-78
2023/04/04 10:34:55;;;;;;;20.02;6.15;;;;;;;;;;5066244;28;20052;-78
2023/04/04 10:37:27;;;;;;;20.40;5.60;;;;;;;;;;5064365;28;20060;-79
2023/04/04 10:40:07;;;;;;;13.82;5.63;;;;;;;;;;5066334;28;20041;-79
2023/04/04 10:42:42;;;;;;;18.58;7.03;;;;;;;;;;5066439;28;20518;-80
2023/04/04 10:45:16;;;;;;;14.30;6.88;;;;;;;;;;5068914;28;20045;-77
2023/04/04 10:47:51;;;;;;;15.00;7.63;;;;;;;;;;5076997;28;20388;-79
2023/04/04 10:50:21;;;;;;;22.52;6.70;;;;;;;;;;5079605;28;20037;-77
2023/04/04 10:52:52;;;;;;;44.05;10.43;;;;;;;;;;5086001;28;20506;-78
2023/04/04 10:55:24;;;;;;;25.70;7.72;;;;;;;;;;5099060;28;20040;-76
2023/04/04 10:57:55;;;;;;;22.45;7.40;;;;;;;;;;5098773;28;20430;-77
2023/04/04 11:00:26;;;;;;;12.27;6.82;;;;;;;;;;5100459;28;20502;-76
2023/04/04 11:03:03;;;;;;;14.77;6.15;;;;;;;;;;5100569;28;20048;-76
2023/04/04 11:06:00;;;;;;;16.92;6.35;;;;;;;;;;5100932;28;20040;-76
2023/04/04 11:08:36;;;;;;;14.45;6.07;;;;;;;;;;5109797;28;20051;-78
2023/04/04 11:11:07;;;;;;;16.00;5.13;;;;;;;;;;5091613;28;20522;-77
2023/04/04 11:14:00;;;;;;;17.40;6.40;;;;;;;;;;5091124;28;20055;-76
2023/04/04 11:16:45;;;;;;;16.52;6.78;;;;;;;;;;5109736;28;20525;-77
2023/04/04 11:19:16;;;;;;;16.63;6.47;;;;;;;;;;5111375;28;20039;-79
2023/04/04 11:21:48;;;;;;;21.92;6.35;;;;;;;;;;5092118;28;20052;-77
2023/04/04 11:24:20;;;;;;;25.27;7.43;;;;;;;;;;5110053;28;20043;-79
2023/04/04 11:26:54;;;;;;;15.05;6.95;;;;;;;;;;5109985;28;20101;-77
2023/04/04 11:29:54;;;;;;;24.90;6.82;;;;;;;;;;5110418;28;20050;-75
2023/04/04 11:32:33;;;;;;;18.30;6.05;;;;;;;;;;5109572;28;20044;-77
2023/04/04 11:35:06;;;;;;;17.88;6.25;;;;;;;;;;5109832;28;20056;-80
2023/04/04 11:38:00;;;;;;;17.38;5.65;;;;;;;;;;5110023;28;20064;-77
2023/04/04 11:40:41;;;;;;;18.33;5.28;;;;;;;;;;5109842;28;20035;-78
2023/04/04 11:43:12;;;;;;;15.98;5.57;;;;;;;;;;5109948;28;20047;-76
2023/04/04 11:45:47;;;;;;;13.88;4.78;;;;;;;;;;5109420;28;20052;-78
2023/04/04 11:48:19;;;;;;;17.20;5.30;;;;;;;;;;5110287;28;20044;-77
2023/04/04 11:50:54;;;;;;;14.27;4.97;;;;;;;;;;5091416;28;20051;-77
2023/04/04 11:53:24;;;;;;;14.73;4.32;;;;;;;;;;5109468;28;20105;-77
2023/04/04 11:55:55;;;;;;;13.43;5.68;;;;;;;;;;5109307;28;20044;-78
2023/04/04 11:58:27;;;;;;;14.88;4.57;;;;;;;;;;5109574;28;20051;-79
2023/04/04 12:00:57;;;;;;;15.15;5.82;;;;;;;;;;5109196;28;20487;-80
2023/04/04 12:03:28;;;;;;;15.82;5.03;;;;;;;;;;5091030;28;20044;-80
2023/04/04 12:06:01;;;;;;;15.98;5.20;;;;;;;;;;5109367;28;20043;-78
2023/04/04 12:08:33;;;;;;;15.38;4.43;;;;;;;;;;5109370;28;20051;-77
2023/04/04 12:11:10;;;;;;;13.23;4.95;;;;;;;;;;5109431;28;20051;-77
2023/04/04 12:13:44;;;;;;;13.48;5.68;;;;;;;;;;5108988;28;20521;-77
2023/04/04 12:16:18;;;;;;;29.15;5.47;;;;;;;;;;5091821;28;20051;-76
2023/04/04 12:18:49;;;;;;;17.05;5.85;;;;;;;;;;5109117;28;20054;-76
2023/04/04 12:21:21;;;;;;;12.73;4.53;;;;;;;;;;5108693;28;20411;-80
2023/04/04 12:23:51;;;;;;;16.65;5.90;;;;;;;;;;5108675;28;20387;-76
2023/04/04 12:26:23;;;;;;;17.63;5.43;;;;;;;;;;5109402;28;20051;-77
2023/04/04 12:28:56;;;;;;;15.90;4.72;;;;;;;;;;5108809;28;20846;-78
2023/04/04 12:31:28;;;;;;;19.10;5.10;;;;;;;;;;5109010;28;20048;-78
2023/04/04 12:34:00;;;;;;;15.18;4.38;;;;;;;;;;5109200;28;20054;-78
2023/04/04 12:36:35;;;;;;;13.98;5.13;;;;;;;;;;5108899;28;20062;-81
2023/04/04 12:39:10;;;;;;;12.68;4.93;;;;;;;;;;5109753;28;20059;-79
2023/04/04 12:42:02;;;;;;;19.85;5.47;;;;;;;;;;5108714;28;20047;-77
2023/04/04 12:44:38;;;;;;;16.38;4.90;;;;;;;;;;5108878;28;20056;-80
2023/04/04 12:47:12;;;;;;;11.77;4.43;;;;;;;;;;5108941;28;20514;-78
2023/04/04 12:49:47;;;;;;;16.02;5.05;;;;;;;;;;5108526;28;20043;-77
2023/04/04 12:52:26;;;;;;;14.63;4.20;;;;;;;;;;5107853;28;20052;-78
2023/04/04 12:55:02;;;;;;;21.63;4.72;;;;;;;;;;5108458;28;20156;-76
2023/04/04 12:57:54;;;;;;;15.75;4.78;;;;;;;;;;5108544;28;20493;-78
2023/04/04 13:00:26;;;;;;;13.25;4.40;;;;;;;;;;5108125;28;20069;-77
2023/04/04 13:02:58;;;;;;;14.15;5.03;;;;;;;;;;5108213;28;20059;-80
2023/04/04 13:05:28;;;;;;;12.23;5.30;;;;;;;;;;5107935;28;20410;-78
2023/04/04 13:08:08;;;;;;;15.65;5.05;;;;;;;;;;5109017;28;20545;-77
2023/04/04 13:11:00;;;;;;;11.15;4.28;;;;;;;;;;5107647;28;20058;-78
2023/04/04 13:13:41;;;;;;;14.52;4.20;;;;;;;;;;5108114;28;20070;-77
2023/04/04 13:16:35;;;;;;;10.70;4.40;;;;;;;;;;5108069;28;20043;-80
2023/04/04 13:19:07;;;;;;;14.88;4.32;;;;;;;;;;5108057;28;20047;-78
2023/04/04 13:21:39;;;;;;;11.60;4.20;;;;;;;;;;5108219;28;20043;-77
2023/04/04 13:24:10;;;;;;;16.63;4.38;;;;;;;;;;5108215;28;20043;-79
2023/04/04 13:26:40;;;;;;;16.70;4.47;;;;;;;;;;5107999;28;20528;-81
2023/04/04 13:29:11;;;;;;;11.50;4.50;;;;;;;;;;5107794;28;20418;-78
2023/04/04 13:31:42;;;;;;;11.40;4.15;;;;;;;;;;5107745;28;20039;-78
2023/04/04 13:34:13;;;;;;;15.32;5.18;;;;;;;;;;5107445;28;20411;-78
2023/04/04 13:36:43;;;;;;;12.43;4.13;;;;;;;;;;5107964;28;20043;-76
2023/04/04 13:39:13;;;;;;;16.85;4.63;;;;;;;;;;5107341;28;20051;-76
2023/04/04 13:41:44;;;;;;;10.77;3.83;;;;;;;;;;5107995;28;20051;-79
2023/04/04 13:44:16;;;;;;;12.60;3.83;;;;;;;;;;5089350;28;20051;-77
2023/04/04 13:46:46;;;;;;;11.00;3.45;;;;;;;;;;5107724;28;20548;-79
2023/04/04 13:49:16;;;;;;;14.48;4.00;;;;;;;;;;5107646;28;20399;-79
2023/04/04 13:51:48;;;;;;;10.02;3.97;;;;;;;;;;5107139;28;20044;-78
2023/04/04 13:54:19;;;;;;;15.27;5.00;;;;;;;;;;5107415;28;20066;-78
2023/04/04 13:56:51;;;;;;;17.25;4.07;;;;;;;;;;5107737;28;20114;-80
2023/04/04 13:59:25;;;;;;;11.52;3.53;;;;;;;;;;5107573;28;20075;-80
2023/04/04 14:01:57;;;;;;;12.15;3.65;;;;;;;;;;5106934;28;20036;-78
2023/04/04 14:04:29;;;;;;;10.88;4.22;;;;;;;;;;5106996;28;20048;-76
2023/04/04 14:07:01;;;;;;;12.52;3.90;;;;;;;;;;5108326;28;20485;-76
2023/04/04 14:09:33;;;;;;;14.73;4.72;;;;;;;;;;5107126;28;20043;-74
2023/04/04 14:12:05;;;;;;;15.85;4.40;;;;;;;;;;5089169;28;20429;-77
2023/04/04 14:14:35;;;;;;;13.52;5.53;;;;;;;;;;5088917;28;20051;-77
2023/04/04 14:17:07;;;;;;;11.77;3.67;;;;;;;;;;5107395;28;20047;-77
2023/04/04 14:19:38;;;;;;;9.68;3.75;;;;;;;;;;5107245;28;20055;-76
2023/04/04 14:22:12;;;;;;;15.15;4.38;;;;;;;;;;5106776;28;20525;-80
2023/04/04 14:24:44;;;;;;;14.68;4.38;;;;;;;;;;5107126;28;20410;-77
2023/04/04 14:27:15;;;;;;;12.60;3.95;;;;;;;;;;5106547;28;20055;-79
2023/04/04 14:29:48;;;;;;;9.95;3.88;;;;;;;;;;5107267;28;20051;-78
2023/04/04 14:32:21;;;;;;;19.77;4.47;;;;;;;;;;5106758;28;20035;-78
2023/04/04 14:34:54;;;;;;;10.32;3.47;;;;;;;;;;5089679;28;20047;-78
2023/04/04 14:37:27;;;;;;;12.60;4.00;;;;;;;;;;5107002;28;20040;-77
2023/04/04 14:39:59;;;;;;;10.48;4.30;;;;;;;;;;5106757;28;20056;-79
2023/04/04 14:42:31;;;;;;;11.80;3.83;;;;;;;;;;5106981;28;20043;-76
2023/04/04 14:45:06;;;;;;;11.30;3.80;;;;;;;;;;5106904;28;20040;-78
2023/04/04 14:47:38;;;;;;;18.58;4.80;;;;;;;;;;5106993;28;20387;-77
2023/04/04 14:50:11;;;;;;;15.15;3.70;;;;;;;;;;5106719;28;20054;-80
2023/04/04 14:52:43;;;;;;;26.52;4.45;;;;;;;;;;5106503;28;20048;-77
2023/04/04 14:55:17;;;;;;;17.27;4.88;;;;;;;;;;5087588;28;20047;-77
2023/04/04 14:57:54;;;;;;;14.18;4.20;;;;;;;;;;5106592;28;20058;-74
2023/04/04 15:00:32;;;;;;;13.07;3.83;;;;;;;;;;5107224;28;20044;-77
2023/04/04 15:03:07;;;;;;;18.35;4.20;;;;;;;;;;5107291;28;20055;-76
2023/04/04 15:05:40;;;;;;;18.17;3.75;;;;;;;;;;5105839;28;20100;-77
2023/04/04 15:08:12;;;;;;;15.35;4.07;;;;;;;;;;5106482;28;20051;-75
2023/04/04 15:10:44;;;;;;;19.13;4.65;;;;;;;;;;5106461;28;20047;-76
2023/04/04 15:13:18;;;;;;;12.15;4.72;;;;;;;;;;5106401;28;20040;-76
2023/04/04 15:15:54;;;;;;;12.30;4.05;;;;;;;;;;5106498;28;20051;-79
2023/04/04 15:18:26;;;;;;;17.17;4.28;;;;;;;;;;5106034;28;20410;-77
2023/04/04 15:21:00;;;;;;;18.13;4.88;;;;;;;;;;5089291;28;20052;-79
2023/04/04 15:23:33;;;;;;;10.38;3.95;;;;;;;;;;5106414;28;20043;-75
2023/04/04 15:26:11;;;;;;;17.80;4.10;;;;;;;;;;5106371;28;20503;-77
2023/04/04 15:28:48;;;;;;;10.75;3.70;;;;;;;;;;5106427;28;20043;-81
2023/04/04 15:31:25;;;;;;;17.92;4.13;;;;;;;;;;5088452;28;20410;-75
2023/04/04 15:34:00;;;;;;;9.30;3.38;;;;;;;;;;5108329;28;20052;-78
2023/04/04 15:36:32;;;;;;;11.68;4.03;;;;;;;;;;5109743;28;20388;-77
2023/04/04 15:39:05;;;;;;;17.08;4.10;;;;;;;;;;5109756;28;20047;-75
2023/04/04 15:41:39;;;;;;;9.50;3.58;;;;;;;;;;5091103;28;20052;-76
2023/04/04 15:44:16;;;;;;;10.80;3.45;;;;;;;;;;5109443;28;20051;-77
2023/04/04 15:46:48;;;;;;;10.60;3.40;;;;;;;;;;5109975;28;20044;-78